sensor_id;sensor_type;location;lat;lon;timestamp;temperature;humidity
10388;DHT22;5240;51.128;4.566;2023-10-08T00:02:24;15.80;99.90
10388;DHT22;5240;51.128;4.566;2023-10-08T00:04:52;15.80;99.90
10388;DHT22;5240;51.128;4.566;2023-10-08T00:07:20;15.70;99.90
10388;DHT22;5240;51.128;4.566;2023-10-08T00:09:49;15.70;99.90
10388;DHT22;5240;51.128;4.566;2023-10-08T00:12:19;15.70;99.90
10388;DHT22;5240;51.128;4.566;2023-10-08T00:14:46;15.60;99.90
10388;DHT22;5240;51.128;4.566;2023-10-08T00:17:16;15.60;99.90
10388;DHT22;5240;51.128;4.566;2023-10-08T00:19:44;15.50;99.90
10388;DHT22;5240;51.128;4.566;2023-10-08T00:22:11;15.50;99.90
10388;DHT22;5240;51.128;4.566;2023-10-08T00:24:44;15.50;99.90
10388;DHT22;5240;51.128;4.566;2023-10-08T00:27:15;15.40;99.90
10388;DHT22;5240;51.128;4.566;2023-10-08T00:29:44;15.40;99.90
10388;DHT22;5240;51.128;4.566;2023-10-08T00:32:13;15.40;99.90
10388;DHT22;5240;51.128;4.566;2023-10-08T00:34:41;15.40;99.90
10388;DHT22;5240;51.128;4.566;2023-10-08T00:37:09;15.30;99.90
10388;DHT22;5240;51.128;4.566;2023-10-08T00:39:39;15.30;99.90
10388;DHT22;5240;51.128;4.566;2023-10-08T00:42:07;15.30;99.90
10388;DHT22;5240;51.128;4.566;2023-10-08T00:44:34;15.20;99.90
10388;DHT22;5240;51.128;4.566;2023-10-08T00:47:15;15.20;99.90
10388;DHT22;5240;51.128;4.566;2023-10-08T00:49:44;15.10;99.90
10388;DHT22;5240;51.128;4.566;2023-10-08T00:52:31;15.00;99.90
10388;DHT22;5240;51.128;4.566;2023-10-08T00:55:08;15.00;99.90
10388;DHT22;5240;51.128;4.566;2023-10-08T00:57:40;15.00;99.90
10388;DHT22;5240;51.128;4.566;2023-10-08T01:00:10;14.90;99.90
10388;DHT22;5240;51.128;4.566;2023-10-08T01:02:48;14.80;99.90
10388;DHT22;5240;51.128;4.566;2023-10-08T01:05:20;14.70;99.90
10388;DHT22;5240;51.128;4.566;2023-10-08T01:08:08;14.70;99.90
10388;DHT22;5240;51.128;4.566;2023-10-08T01:10:38;14.60;99.90
10388;DHT22;5240;51.128;4.566;2023-10-08T01:13:08;14.60;99.90
10388;DHT22;5240;51.128;4.566;2023-10-08T01:15:45;14.60;99.90
10388;DHT22;5240;51.128;4.566;2023-10-08T01:18:17;14.50;99.90
10388;DHT22;5240;51.128;4.566;2023-10-08T01:20:56;14.50;99.90
10388;DHT22;5240;51.128;4.566;2023-10-08T01:23:31;14.50;99.90
10388;DHT22;5240;51.128;4.566;2023-10-08T01:25:58;14.50;99.90
10388;DHT22;5240;51.128;4.566;2023-10-08T01:28:36;14.40;99.90
10388;DHT22;5240;51.128;4.566;2023-10-08T01:31:03;14.40;99.90
10388;DHT22;5240;51.128;4.566;2023-10-08T01:33:32;14.30;99.90
10388;DHT22;5240;51.128;4.566;2023-10-08T01:36:04;14.30;99.90
10388;DHT22;5240;51.128;4.566;2023-10-08T01:38:39;14.30;99.90
10388;DHT22;5240;51.128;4.566;2023-10-08T01:41:07;14.30;99.90
10388;DHT22;5240;51.128;4.566;2023-10-08T01:43:44;14.20;99.90
10388;DHT22;5240;51.128;4.566;2023-10-08T01:46:11;14.20;99.90
10388;DHT22;5240;51.128;4.566;2023-10-08T01:48:38;14.30;99.90
10388;DHT22;5240;51.128;4.566;2023-10-08T01:51:05;14.30;99.90
10388;DHT22;5240;51.128;4.566;2023-10-08T01:53:38;14.30;99.90
10388;DHT22;5240;51.128;4.566;2023-10-08T01:56:05;14.40;99.90
10388;DHT22;5240;51.128;4.566;2023-10-08T01:58:33;14.40;99.90
10388;DHT22;5240;51.128;4.566;2023-10-08T02:01:00;14.30;99.90
10388;DHT22;5240;51.128;4.566;2023-10-08T02:03:27;14.40;99.90
10388;DHT22;5240;51.128;4.566;2023-10-08T02:05:54;14.30;99.90
10388;DHT22;5240;51.128;4.566;2023-10-08T02:08:25;14.30;99.90
10388;DHT22;5240;51.128;4.566;2023-10-08T02:10:54;14.30;99.90
10388;DHT22;5240;51.128;4.566;2023-10-08T02:13:22;14.30;99.90
10388;DHT22;5240;51.128;4.566;2023-10-08T02:15:49;14.40;99.90
10388;DHT22;5240;51.128;4.566;2023-10-08T02:18:17;14.40;99.90
10388;DHT22;5240;51.128;4.566;2023-10-08T02:20:44;14.40;99.90
10388;DHT22;5240;51.128;4.566;2023-10-08T02:23:12;14.40;99.90
10388;DHT22;5240;51.128;4.566;2023-10-08T02:25:39;14.40;99.90
10388;DHT22;5240;51.128;4.566;2023-10-08T02:28:08;14.40;99.90
10388;DHT22;5240;51.128;4.566;2023-10-08T02:30:36;14.50;99.90
10388;DHT22;5240;51.128;4.566;2023-10-08T02:33:04;14.50;99.90
10388;DHT22;5240;51.128;4.566;2023-10-08T02:35:39;14.60;99.90
10388;DHT22;5240;51.128;4.566;2023-10-08T02:38:08;14.60;99.90
10388;DHT22;5240;51.128;4.566;2023-10-08T02:40:37;14.60;99.90
10388;DHT22;5240;51.128;4.566;2023-10-08T02:43:11;14.70;99.90
10388;DHT22;5240;51.128;4.566;2023-10-08T02:45:40;14.60;99.90
10388;DHT22;5240;51.128;4.566;2023-10-08T02:48:07;14.60;99.90
10388;DHT22;5240;51.128;4.566;2023-10-08T02:50:38;14.60;99.90
10388;DHT22;5240;51.128;4.566;2023-10-08T02:53:06;14.60;99.90
10388;DHT22;5240;51.128;4.566;2023-10-08T02:55:36;14.50;99.90
10388;DHT22;5240;51.128;4.566;2023-10-08T02:58:08;14.50;99.90
10388;DHT22;5240;51.128;4.566;2023-10-08T03:00:41;14.50;99.90
10388;DHT22;5240;51.128;4.566;2023-10-08T03:03:08;14.50;99.90
10388;DHT22;5240;51.128;4.566;2023-10-08T03:05:43;14.60;99.90
10388;DHT22;5240;51.128;4.566;2023-10-08T03:08:12;14.50;99.90
10388;DHT22;5240;51.128;4.566;2023-10-08T03:10:39;14.50;99.90
10388;DHT22;5240;51.128;4.566;2023-10-08T03:13:07;14.50;99.90
10388;DHT22;5240;51.128;4.566;2023-10-08T03:15:36;14.40;99.90
10388;DHT22;5240;51.128;4.566;2023-10-08T03:18:14;14.50;99.90
10388;DHT22;5240;51.128;4.566;2023-10-08T03:20:41;14.40;99.90
10388;DHT22;5240;51.128;4.566;2023-10-08T03:23:14;14.40;99.90
10388;DHT22;5240;51.128;4.566;2023-10-08T03:26:00;14.40;99.90
10388;DHT22;5240;51.128;4.566;2023-10-08T03:28:35;14.40;99.90
10388;DHT22;5240;51.128;4.566;2023-10-08T03:31:03;14.30;99.90
10388;DHT22;5240;51.128;4.566;2023-10-08T03:33:33;14.30;99.90
10388;DHT22;5240;51.128;4.566;2023-10-08T03:36:02;14.30;99.90
10388;DHT22;5240;51.128;4.566;2023-10-08T03:38:40;14.20;99.90
10388;DHT22;5240;51.128;4.566;2023-10-08T03:41:17;14.30;99.90
10388;DHT22;5240;51.128;4.566;2023-10-08T03:43:46;14.20;99.90
10388;DHT22;5240;51.128;4.566;2023-10-08T03:46:23;14.20;99.90
10388;DHT22;5240;51.128;4.566;2023-10-08T03:48:53;14.20;99.90
10388;DHT22;5240;51.128;4.566;2023-10-08T03:51:23;14.10;99.90
10388;DHT22;5240;51.128;4.566;2023-10-08T03:53:53;14.10;99.90
10388;DHT22;5240;51.128;4.566;2023-10-08T03:56:41;14.00;99.90
10388;DHT22;5240;51.128;4.566;2023-10-08T03:59:11;14.00;99.90
10388;DHT22;5240;51.128;4.566;2023-10-08T04:01:40;14.00;99.90
10388;DHT22;5240;51.128;4.566;2023-10-08T04:04:08;14.00;99.90
10388;DHT22;5240;51.128;4.566;2023-10-08T04:06:40;14.00;99.90
10388;DHT22;5240;51.128;4.566;2023-10-08T04:09:14;14.00;99.90
10388;DHT22;5240;51.128;4.566;2023-10-08T04:11:50;14.00;99.90
10388;DHT22;5240;51.128;4.566;2023-10-08T04:14:23;14.00;99.90
10388;DHT22;5240;51.128;4.566;2023-10-08T04:16:51;14.00;99.90
10388;DHT22;5240;51.128;4.566;2023-10-08T04:19:20;14.10;99.90
10388;DHT22;5240;51.128;4.566;2023-10-08T04:21:52;14.00;99.90
10388;DHT22;5240;51.128;4.566;2023-10-08T04:24:22;14.00;99.90
10388;DHT22;5240;51.128;4.566;2023-10-08T04:26:55;14.00;99.90
10388;DHT22;5240;51.128;4.566;2023-10-08T04:29:28;13.90;99.90
10388;DHT22;5240;51.128;4.566;2023-10-08T04:31:58;13.90;99.90
10388;DHT22;5240;51.128;4.566;2023-10-08T04:34:35;13.90;99.90
10388;DHT22;5240;51.128;4.566;2023-10-08T04:37:02;13.90;99.90
10388;DHT22;5240;51.128;4.566;2023-10-08T04:39:37;13.90;99.90
10388;DHT22;5240;51.128;4.566;2023-10-08T04:42:06;13.90;99.90
10388;DHT22;5240;51.128;4.566;2023-10-08T04:44:36;13.80;99.90
10388;DHT22;5240;51.128;4.566;2023-10-08T04:47:06;13.80;99.90
10388;DHT22;5240;51.128;4.566;2023-10-08T04:49:54;13.80;99.90
10388;DHT22;5240;51.128;4.566;2023-10-08T04:52:22;13.70;99.90
10388;DHT22;5240;51.128;4.566;2023-10-08T04:54:51;13.80;99.90
10388;DHT22;5240;51.128;4.566;2023-10-08T04:57:20;13.70;99.90
10388;DHT22;5240;51.128;4.566;2023-10-08T04:59:48;13.70;99.90
10388;DHT22;5240;51.128;4.566;2023-10-08T05:02:16;13.70;99.90
10388;DHT22;5240;51.128;4.566;2023-10-08T05:04:49;13.60;99.90
10388;DHT22;5240;51.128;4.566;2023-10-08T05:07:49;13.60;99.90
10388;DHT22;5240;51.128;4.566;2023-10-08T05:10:43;13.60;99.90
10388;DHT22;5240;51.128;4.566;2023-10-08T05:13:28;13.70;99.90
10388;DHT22;5240;51.128;4.566;2023-10-08T05:16:10;13.70;99.90
10388;DHT22;5240;51.128;4.566;2023-10-08T05:19:01;13.60;99.90
10388;DHT22;5240;51.128;4.566;2023-10-08T05:21:50;13.70;99.90
10388;DHT22;5240;51.128;4.566;2023-10-08T05:24:45;13.70;99.90
10388;DHT22;5240;51.128;4.566;2023-10-08T05:27:32;13.70;99.90
10388;DHT22;5240;51.128;4.566;2023-10-08T05:30:24;13.60;99.90
10388;DHT22;5240;51.128;4.566;2023-10-08T05:33:04;13.60;99.90
10388;DHT22;5240;51.128;4.566;2023-10-08T05:35:50;13.60;99.90
10388;DHT22;5240;51.128;4.566;2023-10-08T05:38:21;13.60;99.90
10388;DHT22;5240;51.128;4.566;2023-10-08T05:41:06;13.60;99.90
10388;DHT22;5240;51.128;4.566;2023-10-08T05:43:59;13.60;99.90
10388;DHT22;5240;51.128;4.566;2023-10-08T05:46:49;13.50;99.90
10388;DHT22;5240;51.128;4.566;2023-10-08T05:49:33;13.40;99.90
10388;DHT22;5240;51.128;4.566;2023-10-08T05:52:20;13.40;99.90
10388;DHT22;5240;51.128;4.566;2023-10-08T05:55:07;13.40;99.90
10388;DHT22;5240;51.128;4.566;2023-10-08T05:57:52;13.40;99.90
10388;DHT22;5240;51.128;4.566;2023-10-08T06:00:28;13.40;99.90
10388;DHT22;5240;51.128;4.566;2023-10-08T06:03:31;13.40;99.90
10388;DHT22;5240;51.128;4.566;2023-10-08T06:06:13;13.40;99.90
10388;DHT22;5240;51.128;4.566;2023-10-08T06:08:51;13.50;99.90
10388;DHT22;5240;51.128;4.566;2023-10-08T06:11:18;13.60;99.90
10388;DHT22;5240;51.128;4.566;2023-10-08T06:14:07;13.70;99.90
10388;DHT22;5240;51.128;4.566;2023-10-08T06:16:42;13.70;99.90
10388;DHT22;5240;51.128;4.566;2023-10-08T06:19:13;13.70;99.90
10388;DHT22;5240;51.128;4.566;2023-10-08T06:21:40;13.70;99.90
10388;DHT22;5240;51.128;4.566;2023-10-08T06:24:08;13.70;99.90
10388;DHT22;5240;51.128;4.566;2023-10-08T06:26:36;13.70;99.90
10388;DHT22;5240;51.128;4.566;2023-10-08T06:29:10;13.80;99.90
10388;DHT22;5240;51.128;4.566;2023-10-08T06:31:52;13.80;99.90
10388;DHT22;5240;51.128;4.566;2023-10-08T06:34:21;13.90;99.90
10388;DHT22;5240;51.128;4.566;2023-10-08T06:36:51;13.90;99.90
10388;DHT22;5240;51.128;4.566;2023-10-08T06:39:20;14.00;99.90
10388;DHT22;5240;51.128;4.566;2023-10-08T06:41:52;14.00;99.90
10388;DHT22;5240;51.128;4.566;2023-10-08T06:44:21;14.10;99.90
10388;DHT22;5240;51.128;4.566;2023-10-08T06:46:49;14.20;99.90
10388;DHT22;5240;51.128;4.566;2023-10-08T06:49:18;14.30;99.90
10388;DHT22;5240;51.128;4.566;2023-10-08T06:51:50;14.30;99.90
10388;DHT22;5240;51.128;4.566;2023-10-08T06:54:17;14.30;99.90
10388;DHT22;5240;51.128;4.566;2023-10-08T06:56:45;14.40;99.90
10388;DHT22;5240;51.128;4.566;2023-10-08T06:59:17;14.40;99.90
10388;DHT22;5240;51.128;4.566;2023-10-08T07:01:46;14.50;99.90
10388;DHT22;5240;51.128;4.566;2023-10-08T07:04:17;14.50;99.90
10388;DHT22;5240;51.128;4.566;2023-10-08T07:06:44;14.50;99.90
10388;DHT22;5240;51.128;4.566;2023-10-08T07:09:13;14.60;99.90
10388;DHT22;5240;51.128;4.566;2023-10-08T07:11:49;14.60;99.90
10388;DHT22;5240;51.128;4.566;2023-10-08T07:14:21;14.70;99.90
10388;DHT22;5240;51.128;4.566;2023-10-08T07:16:53;14.70;99.90
10388;DHT22;5240;51.128;4.566;2023-10-08T07:19:24;14.70;99.90
10388;DHT22;5240;51.128;4.566;2023-10-08T07:21:59;14.70;99.90
10388;DHT22;5240;51.128;4.566;2023-10-08T07:24:29;14.80;99.90
10388;DHT22;5240;51.128;4.566;2023-10-08T07:27:01;14.90;99.90
10388;DHT22;5240;51.128;4.566;2023-10-08T07:29:34;15.00;99.90
10388;DHT22;5240;51.128;4.566;2023-10-08T07:32:03;15.10;99.90
10388;DHT22;5240;51.128;4.566;2023-10-08T07:34:35;15.20;99.90
10388;DHT22;5240;51.128;4.566;2023-10-08T07:37:03;15.30;99.90
10388;DHT22;5240;51.128;4.566;2023-10-08T07:39:31;15.40;99.90
10388;DHT22;5240;51.128;4.566;2023-10-08T07:42:03;15.60;99.90
10388;DHT22;5240;51.128;4.566;2023-10-08T07:44:32;15.70;99.90
10388;DHT22;5240;51.128;4.566;2023-10-08T07:47:02;15.90;99.90
10388;DHT22;5240;51.128;4.566;2023-10-08T07:49:35;16.00;99.90
10388;DHT22;5240;51.128;4.566;2023-10-08T07:52:03;16.10;99.90
10388;DHT22;5240;51.128;4.566;2023-10-08T07:54:31;16.20;99.90
10388;DHT22;5240;51.128;4.566;2023-10-08T07:57:00;16.30;99.90
10388;DHT22;5240;51.128;4.566;2023-10-08T07:59:34;16.50;99.90
10388;DHT22;5240;51.128;4.566;2023-10-08T08:02:05;16.70;99.90
10388;DHT22;5240;51.128;4.566;2023-10-08T08:04:35;16.90;99.90
10388;DHT22;5240;51.128;4.566;2023-10-08T08:07:03;17.10;99.90
10388;DHT22;5240;51.128;4.566;2023-10-08T08:09:31;17.40;99.90
10388;DHT22;5240;51.128;4.566;2023-10-08T08:12:05;17.60;99.90
10388;DHT22;5240;51.128;4.566;2023-10-08T08:14:33;17.90;99.90
10388;DHT22;5240;51.128;4.566;2023-10-08T08:17:05;18.00;99.90
10388;DHT22;5240;51.128;4.566;2023-10-08T08:19:40;18.00;99.90
10388;DHT22;5240;51.128;4.566;2023-10-08T08:22:07;18.10;99.90
10388;DHT22;5240;51.128;4.566;2023-10-08T08:24:34;18.30;99.90
10388;DHT22;5240;51.128;4.566;2023-10-08T08:27:03;18.50;99.90
10388;DHT22;5240;51.128;4.566;2023-10-08T08:29:37;18.70;99.90
10388;DHT22;5240;51.128;4.566;2023-10-08T08:32:12;18.90;99.90
10388;DHT22;5240;51.128;4.566;2023-10-08T08:34:41;19.30;99.90
10388;DHT22;5240;51.128;4.566;2023-10-08T08:37:10;19.50;99.90
10388;DHT22;5240;51.128;4.566;2023-10-08T08:39:39;19.70;99.90
10388;DHT22;5240;51.128;4.566;2023-10-08T08:42:07;20.10;99.90
10388;DHT22;5240;51.128;4.566;2023-10-08T08:44:37;20.30;99.90
10388;DHT22;5240;51.128;4.566;2023-10-08T08:47:11;20.20;99.90
10388;DHT22;5240;51.128;4.566;2023-10-08T08:49:43;20.30;99.90
10388;DHT22;5240;51.128;4.566;2023-10-08T08:52:10;20.40;99.90
10388;DHT22;5240;51.128;4.566;2023-10-08T08:54:38;20.30;99.90
10388;DHT22;5240;51.128;4.566;2023-10-08T08:57:05;20.30;99.90
10388;DHT22;5240;51.128;4.566;2023-10-08T08:59:41;20.40;99.90
10388;DHT22;5240;51.128;4.566;2023-10-08T09:02:13;20.90;99.90
10388;DHT22;5240;51.128;4.566;2023-10-08T09:04:41;21.10;99.90
10388;DHT22;5240;51.128;4.566;2023-10-08T09:07:08;21.30;99.90
10388;DHT22;5240;51.128;4.566;2023-10-08T09:09:36;21.40;99.90
10388;DHT22;5240;51.128;4.566;2023-10-08T09:12:06;21.60;99.90
10388;DHT22;5240;51.128;4.566;2023-10-08T09:14:36;22.00;99.90
10388;DHT22;5240;51.128;4.566;2023-10-08T09:17:04;22.00;99.90
10388;DHT22;5240;51.128;4.566;2023-10-08T09:19:36;22.00;99.90
10388;DHT22;5240;51.128;4.566;2023-10-08T09:22:04;22.20;99.90
10388;DHT22;5240;51.128;4.566;2023-10-08T09:24:31;22.80;99.90
10388;DHT22;5240;51.128;4.566;2023-10-08T09:26:59;23.10;99.90
10388;DHT22;5240;51.128;4.566;2023-10-08T09:29:27;23.00;99.90
10388;DHT22;5240;51.128;4.566;2023-10-08T09:31:56;22.60;99.90
10388;DHT22;5240;51.128;4.566;2023-10-08T09:34:26;22.30;99.90
10388;DHT22;5240;51.128;4.566;2023-10-08T09:36:56;22.00;99.90
10388;DHT22;5240;51.128;4.566;2023-10-08T09:39:25;21.80;99.90
10388;DHT22;5240;51.128;4.566;2023-10-08T09:41:56;22.00;99.90
10388;DHT22;5240;51.128;4.566;2023-10-08T09:44:24;22.10;99.90
10388;DHT22;5240;51.128;4.566;2023-10-08T09:46:53;22.40;99.90
10388;DHT22;5240;51.128;4.566;2023-10-08T09:49:28;23.00;99.90
10388;DHT22;5240;51.128;4.566;2023-10-08T09:52:01;23.40;99.90
10388;DHT22;5240;51.128;4.566;2023-10-08T09:54:34;23.50;99.90
10388;DHT22;5240;51.128;4.566;2023-10-08T09:57:06;23.40;99.90
10388;DHT22;5240;51.128;4.566;2023-10-08T09:59:34;23.40;99.90
10388;DHT22;5240;51.128;4.566;2023-10-08T10:02:04;23.20;99.90
10388;DHT22;5240;51.128;4.566;2023-10-08T10:04:35;23.00;99.90
10388;DHT22;5240;51.128;4.566;2023-10-08T10:07:09;22.70;99.90
10388;DHT22;5240;51.128;4.566;2023-10-08T10:09:38;22.50;99.90
10388;DHT22;5240;51.128;4.566;2023-10-08T10:12:06;22.80;99.90
10388;DHT22;5240;51.128;4.566;2023-10-08T10:14:41;23.30;99.90
10388;DHT22;5240;51.128;4.566;2023-10-08T10:17:09;23.90;99.90
10388;DHT22;5240;51.128;4.566;2023-10-08T10:19:40;24.20;99.90
10388;DHT22;5240;51.128;4.566;2023-10-08T10:22:14;24.70;99.90
10388;DHT22;5240;51.128;4.566;2023-10-08T10:24:42;25.10;99.90
10388;DHT22;5240;51.128;4.566;2023-10-08T10:27:12;25.00;99.90
10388;DHT22;5240;51.128;4.566;2023-10-08T10:29:40;25.70;99.90
10388;DHT22;5240;51.128;4.566;2023-10-08T10:32:10;26.30;99.90
10388;DHT22;5240;51.128;4.566;2023-10-08T10:34:39;26.50;99.90
10388;DHT22;5240;51.128;4.566;2023-10-08T10:37:07;26.80;99.90
10388;DHT22;5240;51.128;4.566;2023-10-08T10:39:51;26.70;99.90
10388;DHT22;5240;51.128;4.566;2023-10-08T10:42:19;26.10;99.90
10388;DHT22;5240;51.128;4.566;2023-10-08T10:44:48;26.40;99.90
10388;DHT22;5240;51.128;4.566;2023-10-08T10:47:19;26.30;99.90
10388;DHT22;5240;51.128;4.566;2023-10-08T10:49:52;26.50;99.90
10388;DHT22;5240;51.128;4.566;2023-10-08T10:52:21;26.50;99.90
10388;DHT22;5240;51.128;4.566;2023-10-08T10:55:01;26.20;99.90
10388;DHT22;5240;51.128;4.566;2023-10-08T10:57:46;26.10;99.90
10388;DHT22;5240;51.128;4.566;2023-10-08T11:00:20;25.80;99.90
10388;DHT22;5240;51.128;4.566;2023-10-08T11:03:13;24.80;99.90
10388;DHT22;5240;51.128;4.566;2023-10-08T11:05:43;24.20;99.90
10388;DHT22;5240;51.128;4.566;2023-10-08T11:08:15;23.70;99.90
10388;DHT22;5240;51.128;4.566;2023-10-08T11:10:47;23.70;99.90
10388;DHT22;5240;51.128;4.566;2023-10-08T11:13:17;23.80;99.90
10388;DHT22;5240;51.128;4.566;2023-10-08T11:15:46;23.60;99.90
10388;DHT22;5240;51.128;4.566;2023-10-08T11:18:16;23.60;99.90
10388;DHT22;5240;51.128;4.566;2023-10-08T11:20:45;23.50;99.90
10388;DHT22;5240;51.128;4.566;2023-10-08T11:23:31;23.40;99.90
10388;DHT22;5240;51.128;4.566;2023-10-08T11:26:02;23.30;99.90
10388;DHT22;5240;51.128;4.566;2023-10-08T11:28:30;23.20;99.90
10388;DHT22;5240;51.128;4.566;2023-10-08T11:31:00;23.00;99.90
10388;DHT22;5240;51.128;4.566;2023-10-08T11:33:34;22.80;99.90
10388;DHT22;5240;51.128;4.566;2023-10-08T11:36:03;22.70;99.90
10388;DHT22;5240;51.128;4.566;2023-10-08T11:38:41;22.70;99.90
10388;DHT22;5240;51.128;4.566;2023-10-08T11:41:14;22.50;99.90
10388;DHT22;5240;51.128;4.566;2023-10-08T11:43:48;22.50;99.90
10388;DHT22;5240;51.128;4.566;2023-10-08T11:46:20;22.40;99.90
10388;DHT22;5240;51.128;4.566;2023-10-08T11:48:48;22.30;99.90
10388;DHT22;5240;51.128;4.566;2023-10-08T11:51:16;22.20;99.90
10388;DHT22;5240;51.128;4.566;2023-10-08T11:53:43;22.20;99.90
10388;DHT22;5240;51.128;4.566;2023-10-08T11:56:12;22.30;99.90
10388;DHT22;5240;51.128;4.566;2023-10-08T11:58:40;22.30;99.90
10388;DHT22;5240;51.128;4.566;2023-10-08T12:01:10;22.30;99.90
10388;DHT22;5240;51.128;4.566;2023-10-08T12:03:41;22.40;99.90
10388;DHT22;5240;51.128;4.566;2023-10-08T12:06:10;22.30;99.90
10388;DHT22;5240;51.128;4.566;2023-10-08T12:08:41;22.30;99.90
10388;DHT22;5240;51.128;4.566;2023-10-08T12:11:13;22.30;99.90
10388;DHT22;5240;51.128;4.566;2023-10-08T12:13:40;22.30;99.90
10388;DHT22;5240;51.128;4.566;2023-10-08T12:16:13;22.30;99.90
10388;DHT22;5240;51.128;4.566;2023-10-08T12:18:47;22.20;99.90
10388;DHT22;5240;51.128;4.566;2023-10-08T12:21:19;22.30;99.90
10388;DHT22;5240;51.128;4.566;2023-10-08T12:23:47;22.30;99.90
10388;DHT22;5240;51.128;4.566;2023-10-08T12:26:17;22.40;99.90
10388;DHT22;5240;51.128;4.566;2023-10-08T12:28:45;22.50;99.90
10388;DHT22;5240;51.128;4.566;2023-10-08T12:31:14;22.50;99.90
10388;DHT22;5240;51.128;4.566;2023-10-08T12:33:42;22.50;99.90
10388;DHT22;5240;51.128;4.566;2023-10-08T12:36:13;22.50;99.90
10388;DHT22;5240;51.128;4.566;2023-10-08T12:38:43;22.50;99.90
10388;DHT22;5240;51.128;4.566;2023-10-08T12:41:10;22.60;99.90
10388;DHT22;5240;51.128;4.566;2023-10-08T12:43:44;22.60;99.90
10388;DHT22;5240;51.128;4.566;2023-10-08T12:46:12;22.70;99.90
10388;DHT22;5240;51.128;4.566;2023-10-08T12:48:50;22.70;99.90
10388;DHT22;5240;51.128;4.566;2023-10-08T12:51:20;22.70;99.90
10388;DHT22;5240;51.128;4.566;2023-10-08T12:53:50;22.80;99.90
10388;DHT22;5240;51.128;4.566;2023-10-08T12:56:26;22.80;99.90
10388;DHT22;5240;51.128;4.566;2023-10-08T12:59:02;22.80;99.90
10388;DHT22;5240;51.128;4.566;2023-10-08T13:01:32;22.70;99.90
10388;DHT22;5240;51.128;4.566;2023-10-08T13:04:02;22.80;99.90
10388;DHT22;5240;51.128;4.566;2023-10-08T13:06:34;22.70;99.90
10388;DHT22;5240;51.128;4.566;2023-10-08T13:09:03;22.70;99.90
10388;DHT22;5240;51.128;4.566;2023-10-08T13:11:37;22.70;99.90
10388;DHT22;5240;51.128;4.566;2023-10-08T13:14:06;22.70;99.90
10388;DHT22;5240;51.128;4.566;2023-10-08T13:16:33;22.70;99.90
10388;DHT22;5240;51.128;4.566;2023-10-08T13:19:03;22.70;99.90
10388;DHT22;5240;51.128;4.566;2023-10-08T13:21:33;22.70;99.90
10388;DHT22;5240;51.128;4.566;2023-10-08T13:24:03;22.70;99.90
10388;DHT22;5240;51.128;4.566;2023-10-08T13:26:34;22.80;99.90
10388;DHT22;5240;51.128;4.566;2023-10-08T13:29:03;22.90;99.90
10388;DHT22;5240;51.128;4.566;2023-10-08T13:31:32;22.90;99.90
10388;DHT22;5240;51.128;4.566;2023-10-08T13:34:02;22.90;99.90
10388;DHT22;5240;51.128;4.566;2023-10-08T13:36:33;22.90;99.90
10388;DHT22;5240;51.128;4.566;2023-10-08T13:39:04;22.90;99.90
10388;DHT22;5240;51.128;4.566;2023-10-08T13:41:34;23.00;99.90
10388;DHT22;5240;51.128;4.566;2023-10-08T13:44:03;23.00;99.90
10388;DHT22;5240;51.128;4.566;2023-10-08T13:46:33;23.10;99.90
10388;DHT22;5240;51.128;4.566;2023-10-08T13:49:02;23.20;99.90
10388;DHT22;5240;51.128;4.566;2023-10-08T13:51:31;23.30;99.90
10388;DHT22;5240;51.128;4.566;2023-10-08T13:54:00;23.30;99.90
10388;DHT22;5240;51.128;4.566;2023-10-08T13:56:32;23.30;99.90
10388;DHT22;5240;51.128;4.566;2023-10-08T13:59:03;23.20;99.90
10388;DHT22;5240;51.128;4.566;2023-10-08T14:01:40;23.20;99.90
10388;DHT22;5240;51.128;4.566;2023-10-08T14:04:09;23.20;99.90
10388;DHT22;5240;51.128;4.566;2023-10-08T14:06:38;23.10;99.90
10388;DHT22;5240;51.128;4.566;2023-10-08T14:09:08;23.00;99.90
10388;DHT22;5240;51.128;4.566;2023-10-08T14:11:38;23.00;99.90
10388;DHT22;5240;51.128;4.566;2023-10-08T14:14:05;22.90;99.90
10388;DHT22;5240;51.128;4.566;2023-10-08T14:16:38;23.00;99.90
10388;DHT22;5240;51.128;4.566;2023-10-08T14:19:08;23.00;99.90
10388;DHT22;5240;51.128;4.566;2023-10-08T14:21:38;23.10;99.90
10388;DHT22;5240;51.128;4.566;2023-10-08T14:24:15;23.10;99.90
10388;DHT22;5240;51.128;4.566;2023-10-08T14:26:42;23.20;99.90
10388;DHT22;5240;51.128;4.566;2023-10-08T14:29:09;23.30;99.90
10388;DHT22;5240;51.128;4.566;2023-10-08T14:31:42;23.30;99.90
10388;DHT22;5240;51.128;4.566;2023-10-08T14:34:14;23.30;99.90
10388;DHT22;5240;51.128;4.566;2023-10-08T14:37:07;23.30;99.90
10388;DHT22;5240;51.128;4.566;2023-10-08T14:39:54;23.30;99.90
10388;DHT22;5240;51.128;4.566;2023-10-08T14:42:38;23.40;99.90
10388;DHT22;5240;51.128;4.566;2023-10-08T14:45:22;23.40;99.90
10388;DHT22;5240;51.128;4.566;2023-10-08T14:47:53;23.30;99.90
10388;DHT22;5240;51.128;4.566;2023-10-08T14:50:21;23.30;99.90
10388;DHT22;5240;51.128;4.566;2023-10-08T14:52:49;23.20;99.90
10388;DHT22;5240;51.128;4.566;2023-10-08T14:55:16;23.20;99.90
10388;DHT22;5240;51.128;4.566;2023-10-08T14:57:43;23.20;99.90
10388;DHT22;5240;51.128;4.566;2023-10-08T15:00:10;23.00;99.90
10388;DHT22;5240;51.128;4.566;2023-10-08T15:02:38;22.90;99.90
10388;DHT22;5240;51.128;4.566;2023-10-08T15:05:07;22.90;99.90
10388;DHT22;5240;51.128;4.566;2023-10-08T15:07:34;22.80;99.90
10388;DHT22;5240;51.128;4.566;2023-10-08T15:10:03;22.70;99.90
10388;DHT22;5240;51.128;4.566;2023-10-08T15:12:30;22.60;99.90
10388;DHT22;5240;51.128;4.566;2023-10-08T15:15:00;22.50;99.90
10388;DHT22;5240;51.128;4.566;2023-10-08T15:17:38;22.30;99.90
10388;DHT22;5240;51.128;4.566;2023-10-08T15:20:08;22.20;99.90
10388;DHT22;5240;51.128;4.566;2023-10-08T15:22:40;22.10;99.90
10388;DHT22;5240;51.128;4.566;2023-10-08T15:25:08;22.10;99.90
10388;DHT22;5240;51.128;4.566;2023-10-08T15:27:37;22.00;99.90
10388;DHT22;5240;51.128;4.566;2023-10-08T15:30:07;22.00;99.90
10388;DHT22;5240;51.128;4.566;2023-10-08T15:32:37;22.00;99.90
10388;DHT22;5240;51.128;4.566;2023-10-08T15:35:07;22.00;99.90
10388;DHT22;5240;51.128;4.566;2023-10-08T15:37:35;22.10;99.90
10388;DHT22;5240;51.128;4.566;2023-10-08T15:40:02;22.10;99.90
10388;DHT22;5240;51.128;4.566;2023-10-08T15:42:32;22.20;99.90
10388;DHT22;5240;51.128;4.566;2023-10-08T15:44:59;22.30;99.90
10388;DHT22;5240;51.128;4.566;2023-10-08T15:47:27;22.40;99.90
10388;DHT22;5240;51.128;4.566;2023-10-08T15:49:54;22.40;99.90
10388;DHT22;5240;51.128;4.566;2023-10-08T15:52:25;22.40;99.90
10388;DHT22;5240;51.128;4.566;2023-10-08T15:54:52;22.30;99.90
10388;DHT22;5240;51.128;4.566;2023-10-08T15:57:19;22.30;99.90
10388;DHT22;5240;51.128;4.566;2023-10-08T15:59:47;22.20;99.90
10388;DHT22;5240;51.128;4.566;2023-10-08T16:02:15;22.10;99.90
10388;DHT22;5240;51.128;4.566;2023-10-08T16:04:43;22.00;99.90
10388;DHT22;5240;51.128;4.566;2023-10-08T16:07:10;22.00;99.90
10388;DHT22;5240;51.128;4.566;2023-10-08T16:09:40;21.90;99.90
10388;DHT22;5240;51.128;4.566;2023-10-08T16:12:08;21.80;99.90
10388;DHT22;5240;51.128;4.566;2023-10-08T16:14:35;21.70;99.90